createdAt,value
2023-01-11T00:00:56.555Z,85.80
2023-01-11T00:03:23.658Z,85.00
2023-01-11T00:05:50.963Z,84.60
2023-01-11T00:08:19.178Z,84.30
2023-01-11T00:10:46.236Z,84.20
2023-01-11T00:13:14.483Z,84.20
2023-01-11T00:15:41.675Z,84.10
2023-01-11T00:18:09.745Z,83.90
2023-01-11T00:20:41.143Z,84.00
2023-01-11T00:23:08.698Z,84.10
2023-01-11T00:25:36.172Z,84.00
2023-01-11T00:28:03.480Z,84.10
2023-01-11T00:30:30.710Z,83.90
2023-01-11T00:32:59.010Z,83.50
2023-01-11T00:35:27.197Z,83.40
2023-01-11T00:37:54.454Z,83.50
2023-01-11T00:40:21.742Z,83.60
2023-01-11T00:43:07.493Z,83.50
2023-01-11T00:45:53.120Z,83.40
2023-01-11T00:48:20.270Z,83.80
2023-01-11T00:50:47.364Z,84.50
2023-01-11T00:53:14.447Z,84.30
2023-01-11T00:55:42.557Z,84.90
2023-01-11T00:58:09.670Z,84.70
2023-01-11T01:00:36.793Z,84.80
2023-01-11T01:03:03.966Z,85.10
2023-01-11T01:05:31.021Z,84.70
2023-01-11T01:07:58.099Z,84.70
2023-01-11T01:10:25.164Z,85.20
2023-01-11T01:13:10.773Z,85.40
2023-01-11T01:15:37.856Z,85.60
2023-01-11T01:18:05.043Z,85.90
2023-01-11T01:20:35.171Z,86.00
2023-01-11T01:23:02.336Z,85.80
2023-01-11T01:25:29.432Z,86.00
2023-01-11T01:27:56.471Z,85.90
2023-01-11T01:30:23.522Z,86.10
2023-01-11T01:32:50.579Z,86.10
2023-01-11T01:35:17.655Z,85.50
2023-01-11T01:37:44.964Z,85.20
2023-01-11T01:40:12.694Z,85.00
2023-01-11T01:42:39.734Z,85.00
2023-01-11T01:45:16.690Z,84.90
2023-01-11T01:47:57.716Z,84.80
2023-01-11T01:50:32.927Z,84.80
2023-01-11T01:53:05.376Z,84.80
2023-01-11T01:55:35.798Z,84.90
2023-01-11T01:58:07.134Z,85.00
2023-01-11T02:00:34.450Z,85.40
2023-01-11T02:03:02.326Z,84.50
2023-01-11T02:05:29.456Z,84.70
2023-01-11T02:07:59.339Z,84.70
2023-01-11T02:10:29.683Z,84.30
2023-01-11T02:13:05.709Z,84.20
2023-01-11T02:15:32.945Z,84.40
2023-01-11T02:17:59.971Z,84.60
2023-01-11T02:20:44.669Z,84.40
2023-01-11T02:23:42.005Z,84.50
2023-01-11T02:26:44.215Z,84.30
2023-01-11T02:29:44.423Z,84.10
2023-01-11T02:32:27.363Z,84.20
2023-01-11T02:35:20.350Z,84.20
2023-01-11T02:38:04.822Z,84.20
2023-01-11T02:40:41.004Z,84.10
2023-01-11T02:44:11.844Z,85.40
2023-01-11T02:46:48.555Z,85.70
2023-01-11T02:49:36.924Z,85.80
2023-01-11T02:52:17.608Z,85.80
2023-01-11T02:54:48.364Z,86.50
2023-01-11T02:57:16.313Z,86.50
2023-01-11T02:59:45.819Z,86.50
2023-01-11T03:02:13.138Z,87.00
2023-01-11T03:04:40.215Z,87.30
2023-01-11T03:07:21.557Z,87.20
2023-01-11T03:09:54.539Z,87.00
2023-01-11T03:12:52.053Z,87.50
2023-01-11T03:15:46.900Z,87.70
2023-01-11T03:18:33.301Z,87.50
2023-01-11T03:21:28.328Z,87.50
2023-01-11T03:24:18.914Z,87.40
2023-01-11T03:27:24.235Z,87.70
2023-01-11T03:30:00.457Z,87.50
2023-01-11T03:32:37.789Z,87.00
2023-01-11T03:35:23.780Z,86.90
2023-01-11T03:37:57.594Z,86.70
2023-01-11T03:40:30.655Z,86.50
2023-01-11T03:43:12.035Z,86.30
2023-01-11T03:45:50.967Z,86.20
2023-01-11T03:48:32.941Z,86.40
2023-01-11T03:51:02.270Z,86.50
2023-01-11T03:53:32.712Z,86.00
2023-01-11T03:56:01.403Z,85.90
2023-01-11T03:58:29.156Z,86.60
2023-01-11T04:00:57.394Z,86.90
2023-01-11T04:03:27.164Z,87.00
2023-01-11T04:05:59.294Z,87.10
2023-01-11T04:08:26.678Z,87.00
2023-01-11T04:10:53.793Z,86.80
2023-01-11T04:13:20.832Z,86.60
2023-01-11T04:15:47.890Z,86.70
2023-01-11T04:18:14.953Z,87.30
2023-01-11T04:20:42.075Z,86.50
2023-01-11T04:23:12.192Z,86.10
2023-01-11T04:25:39.296Z,86.10
2023-01-11T04:28:06.406Z,86.10
2023-01-11T04:30:33.954Z,85.70
2023-01-11T04:33:01.071Z,86.00
2023-01-11T04:35:28.251Z,85.20
2023-01-11T04:37:56.284Z,85.20
2023-01-11T04:40:24.540Z,85.60
2023-01-11T04:42:51.736Z,85.70
2023-01-11T04:45:18.943Z,85.60
2023-01-11T04:47:46.060Z,85.40
2023-01-11T04:50:13.215Z,84.80
2023-01-11T04:52:41.598Z,85.20
2023-01-11T04:55:09.379Z,84.40
2023-01-11T04:57:36.536Z,84.40
2023-01-11T05:00:11.001Z,84.30
2023-01-11T05:02:38.997Z,84.00
2023-01-11T05:05:07.236Z,84.00
2023-01-11T05:07:34.664Z,83.90
2023-01-11T05:10:02.691Z,84.10
2023-01-11T05:12:29.766Z,84.20
2023-01-11T05:14:57.073Z,84.10
2023-01-11T05:17:24.129Z,83.90
2023-01-11T05:19:51.240Z,83.80
2023-01-11T05:22:18.294Z,84.70
2023-01-11T05:24:45.335Z,86.00
2023-01-11T05:27:12.456Z,86.50
2023-01-11T05:29:39.548Z,86.80
2023-01-11T05:32:06.689Z,86.90
2023-01-11T05:34:33.824Z,86.70
2023-01-11T05:37:00.902Z,86.60
2023-01-11T05:39:28.025Z,86.60
2023-01-11T05:41:55.077Z,86.50
2023-01-11T05:44:40.679Z,86.50
2023-01-11T05:47:07.718Z,86.60
2023-01-11T05:49:34.776Z,86.00
2023-01-11T05:52:02.028Z,85.70
2023-01-11T05:54:29.062Z,85.60
2023-01-11T05:56:57.727Z,85.50
2023-01-11T05:59:26.684Z,85.30
2023-01-11T06:01:53.889Z,85.80
2023-01-11T06:04:20.980Z,85.50
2023-01-11T06:06:48.142Z,85.40
2023-01-11T06:09:15.219Z,85.60
2023-01-11T06:11:42.291Z,85.10
2023-01-11T06:14:09.349Z,84.60
2023-01-11T06:16:36.480Z,84.60
2023-01-11T06:19:03.605Z,84.80
2023-01-11T06:21:30.758Z,86.00
2023-01-11T06:23:57.819Z,86.30
2023-01-11T06:26:24.938Z,86.20
2023-01-11T06:28:52.056Z,86.20
2023-01-11T06:31:19.783Z,86.10
2023-01-11T06:33:47.243Z,86.10
2023-01-11T06:36:15.322Z,86.10
2023-01-11T06:38:43.408Z,85.70
2023-01-11T06:41:12.449Z,86.00
2023-01-11T06:43:41.718Z,85.20
2023-01-11T06:46:16.231Z,85.20
2023-01-11T06:48:44.411Z,85.30
2023-01-11T06:51:12.800Z,85.30
2023-01-11T06:53:41.623Z,85.30
2023-01-11T06:56:12.460Z,85.20
2023-01-11T06:58:39.663Z,85.10
2023-01-11T07:01:07.716Z,85.00
2023-01-11T07:03:35.302Z,85.10
2023-01-11T07:06:02.611Z,85.00
2023-01-11T07:08:29.740Z,85.00
2023-01-11T07:10:57.021Z,85.10
2023-01-11T07:13:24.154Z,85.00
2023-01-11T07:15:53.843Z,85.00
2023-01-11T07:18:20.986Z,85.20
2023-01-11T07:20:48.055Z,85.50
2023-01-11T07:23:15.165Z,85.40
2023-01-11T07:25:42.252Z,85.60
2023-01-11T07:28:09.663Z,85.30
2023-01-11T07:30:56.275Z,85.10
2023-01-11T07:33:24.839Z,85.30
2023-01-11T07:35:52.092Z,84.90
2023-01-11T07:38:19.423Z,85.00
2023-01-11T07:40:46.523Z,85.00
2023-01-11T07:43:14.991Z,84.70
2023-01-11T07:45:46.443Z,84.20
2023-01-11T07:48:16.459Z,84.30
2023-01-11T07:50:45.290Z,84.40
2023-01-11T07:53:13.271Z,84.60
2023-01-11T07:55:41.266Z,84.80
2023-01-11T07:58:12.666Z,84.70
2023-01-11T08:00:44.048Z,84.90
2023-01-11T08:03:11.341Z,85.20
2023-01-11T08:05:39.180Z,85.20
2023-01-11T08:08:06.486Z,85.20
2023-01-11T08:10:34.261Z,85.20
2023-01-11T08:13:20.693Z,85.70
2023-01-11T08:15:47.881Z,85.60
2023-01-11T08:18:15.018Z,85.60
2023-01-11T08:20:42.845Z,85.80
2023-01-11T08:23:10.620Z,86.30
2023-01-11T08:25:38.515Z,86.00
2023-01-11T08:28:07.452Z,85.90
2023-01-11T08:30:35.672Z,86.00
2023-01-11T08:33:03.495Z,86.30
2023-01-11T08:35:31.238Z,86.50
2023-01-11T08:37:58.306Z,86.30
2023-01-11T08:40:25.638Z,86.50
2023-01-11T08:42:56.929Z,87.00
2023-01-11T08:45:24.350Z,87.30
2023-01-11T08:47:52.054Z,87.30
2023-01-11T08:50:20.284Z,87.40
2023-01-11T08:52:50.930Z,87.50
2023-01-11T08:55:19.004Z,88.00
2023-01-11T08:57:47.993Z,87.40
2023-01-11T09:00:15.664Z,87.40
2023-01-11T09:02:45.147Z,87.40
2023-01-11T09:05:12.319Z,87.30
2023-01-11T09:07:39.659Z,87.30
2023-01-11T09:10:07.133Z,87.40
2023-01-11T09:12:34.313Z,87.40
2023-01-11T09:15:01.430Z,87.30
2023-01-11T09:17:28.560Z,87.60
2023-01-11T09:19:55.755Z,87.50
2023-01-11T09:22:23.210Z,87.50
2023-01-11T09:24:50.293Z,87.30
2023-01-11T09:27:17.542Z,86.60
2023-01-11T09:29:45.946Z,86.60
2023-01-11T09:32:13.064Z,86.80
2023-01-11T09:34:41.674Z,86.70
2023-01-11T09:37:09.155Z,87.10
2023-01-11T09:39:37.060Z,85.60
2023-01-11T09:42:31.331Z,83.90
2023-01-11T09:45:17.310Z,80.00
2023-01-11T09:48:00.915Z,81.10
2023-01-11T09:50:41.079Z,80.90
2023-01-11T09:53:13.765Z,80.80
2023-01-11T09:55:44.607Z,80.60
2023-01-11T09:58:46.726Z,80.90
2023-01-11T10:01:38.272Z,81.80
2023-01-11T10:04:12.805Z,81.70
2023-01-11T10:07:16.615Z,79.60
2023-01-11T10:18:27.588Z,73.70
2023-01-11T10:19:47.748Z,74.40
2023-01-11T10:22:20.516Z,76.40
2023-01-11T10:24:56.217Z,77.60
2023-01-11T10:27:39.588Z,76.30
2023-01-11T10:30:47.950Z,76.50
2023-01-11T10:33:49.748Z,74.70
2023-01-11T10:37:00.110Z,73.50
2023-01-11T10:39:55.465Z,75.30
2023-01-11T10:42:26.232Z,78.10
2023-01-11T10:45:03.043Z,78.80
2023-01-11T10:47:39.073Z,79.30
2023-01-11T10:50:36.354Z,79.40
2023-01-11T10:53:12.638Z,79.00
2023-01-11T10:55:50.192Z,78.50
2023-01-11T10:58:41.162Z,78.60
2023-01-11T11:01:28.356Z,77.90
2023-01-11T11:04:10.527Z,78.80
2023-01-11T11:06:54.572Z,79.20
2023-01-11T11:09:33.860Z,79.60
2023-01-11T11:12:12.493Z,79.50
2023-01-11T11:14:57.785Z,78.90
2023-01-11T11:17:34.229Z,79.20
2023-01-11T11:20:14.473Z,79.50
2023-01-11T11:22:41.993Z,79.60
2023-01-11T11:25:17.138Z,79.50
2023-01-11T11:27:46.103Z,80.30
2023-01-11T11:30:14.993Z,80.00
2023-01-11T11:32:53.903Z,80.20
2023-01-11T11:35:35.855Z,79.80
2023-01-11T11:38:03.873Z,79.80
2023-01-11T11:40:36.504Z,79.70
2023-01-11T11:43:11.814Z,80.40
2023-01-11T11:45:50.828Z,79.70
2023-01-11T11:48:18.746Z,79.80
2023-01-11T11:50:47.965Z,79.60
2023-01-11T11:53:26.674Z,79.40
2023-01-11T11:55:54.716Z,79.50
2023-01-11T11:58:24.877Z,79.70
2023-01-11T12:00:53.273Z,79.60
2023-01-11T12:03:30.131Z,79.30
2023-01-11T12:06:04.997Z,79.50
2023-01-11T12:08:35.229Z,79.50
2023-01-11T12:11:06.338Z,79.60
2023-01-11T12:13:42.289Z,79.90
2023-01-11T12:16:23.272Z,79.60
2023-01-11T12:18:50.421Z,79.50
2023-01-11T12:21:21.868Z,79.60
2023-01-11T12:24:08.333Z,79.40
2023-01-11T12:26:44.210Z,78.90
2023-01-11T12:29:32.646Z,79.10
2023-01-11T12:32:05.654Z,79.30
2023-01-11T12:34:59.002Z,79.10
2023-01-11T12:37:50.826Z,79.10
2023-01-11T12:40:45.418Z,78.50
2023-01-11T12:43:46.120Z,78.20
2023-01-11T12:46:46.405Z,78.30
2023-01-11T12:49:19.469Z,77.90
2023-01-11T12:52:43.673Z,78.40
2023-01-11T12:55:55.656Z,78.10
2023-01-11T12:58:39.555Z,79.60
2023-01-11T13:01:37.370Z,79.80
2023-01-11T13:04:23.510Z,80.20
2023-01-11T13:07:26.100Z,79.60
2023-01-11T13:10:02.212Z,79.50
2023-01-11T13:12:42.295Z,79.70
2023-01-11T13:15:45.007Z,80.20
2023-01-11T13:18:36.649Z,80.50
2023-01-11T13:21:13.361Z,80.10
2023-01-11T13:23:54.565Z,80.10
2023-01-11T13:26:31.805Z,80.00
2023-01-11T13:29:06.592Z,80.00
2023-01-11T13:31:34.971Z,79.90
2023-01-11T13:34:13.276Z,80.50
2023-01-11T13:36:45.552Z,80.30
2023-01-11T13:39:28.474Z,80.00
2023-01-11T13:42:03.253Z,79.80
2023-01-11T13:44:51.485Z,79.50
2023-01-11T13:47:36.638Z,79.40
2023-01-11T13:50:23.711Z,79.50
2023-01-11T13:53:09.912Z,79.50
2023-01-11T13:55:40.124Z,79.40
2023-01-11T13:58:21.033Z,79.20
2023-01-11T14:00:54.703Z,79.20
2023-01-11T14:03:35.029Z,79.20
2023-01-11T14:06:32.839Z,79.10
2023-01-11T14:09:14.633Z,79.10
2023-01-11T14:11:50.838Z,79.00
2023-01-11T14:14:26.588Z,79.40
2023-01-11T14:17:05.892Z,79.80
2023-01-11T14:20:12.068Z,79.40
2023-01-11T14:23:13.627Z,79.40
2023-01-11T14:26:09.550Z,79.20
2023-01-11T14:29:12.567Z,79.00
2023-01-11T14:31:54.734Z,79.20
2023-01-11T14:37:29.766Z,80.10
2023-01-11T14:40:36.354Z,78.90
2023-01-11T14:43:14.634Z,77.90
2023-01-11T14:46:06.595Z,77.90
2023-01-11T14:49:01.422Z,77.40
2023-01-11T14:51:53.513Z,77.20
2023-01-11T14:54:23.121Z,77.00
2023-01-11T14:56:53.915Z,77.00
2023-01-11T14:59:33.340Z,77.00
2023-01-11T15:02:03.211Z,78.10
2023-01-11T15:04:30.879Z,78.40
2023-01-11T15:06:58.822Z,79.00
2023-01-11T15:09:46.985Z,78.90
2023-01-11T15:12:17.791Z,78.90
2023-01-11T15:15:15.425Z,79.30
2023-01-11T15:18:01.445Z,79.40
2023-01-11T15:20:28.840Z,79.60
2023-01-11T15:23:02.262Z,79.40
2023-01-11T15:25:33.763Z,79.50
2023-01-11T15:28:05.138Z,79.60
2023-01-11T15:30:33.702Z,79.90
2023-01-11T15:33:19.302Z,80.40
2023-01-11T15:35:55.538Z,81.60
2023-01-11T15:38:36.803Z,81.80
2023-01-11T15:41:27.122Z,82.80
2023-01-11T15:44:12.895Z,83.50
2023-01-11T15:46:54.811Z,84.50
2023-01-11T15:49:52.131Z,85.70
2023-01-11T15:52:54.538Z,86.50
2023-01-11T15:55:40.427Z,86.90
2023-01-11T15:58:30.736Z,87.40
2023-01-11T16:01:05.029Z,88.00
2023-01-11T16:03:51.632Z,88.10
2023-01-11T16:06:24.648Z,88.70
2023-01-11T16:09:17.713Z,89.40
2023-01-11T16:12:15.509Z,89.70
2023-01-11T16:14:57.599Z,90.00
2023-01-11T16:17:25.931Z,89.80
2023-01-11T16:19:56.945Z,89.90
2023-01-11T16:22:28.453Z,90.00
2023-01-11T16:25:01.398Z,90.10
2023-01-11T16:27:34.706Z,90.10
2023-01-11T16:30:02.287Z,90.00
2023-01-11T16:32:34.247Z,90.20
2023-01-11T16:35:03.530Z,90.30
2023-01-11T16:37:37.032Z,90.40
2023-01-11T16:40:29.401Z,90.40
2023-01-11T16:43:24.726Z,90.30
2023-01-11T16:45:56.088Z,90.30
2023-01-11T16:48:28.481Z,90.40
2023-01-11T16:51:01.648Z,90.60
2023-01-11T16:53:30.563Z,90.70
2023-01-11T16:56:16.291Z,90.70
2023-01-11T16:58:43.495Z,90.70
2023-01-11T17:01:14.887Z,90.40
2023-01-11T17:03:50.572Z,90.80
2023-01-11T17:06:25.214Z,90.60
2023-01-11T17:08:54.325Z,90.70
2023-01-11T17:11:27.242Z,90.70
2023-01-11T17:14:06.415Z,90.70
2023-01-11T17:16:38.934Z,90.60
2023-01-11T17:19:15.749Z,90.60
2023-01-11T17:21:52.302Z,90.60
2023-01-11T17:24:24.821Z,91.00
2023-01-11T17:26:56.334Z,90.90
2023-01-11T17:29:31.182Z,90.60
2023-01-11T17:32:00.984Z,90.70
2023-01-11T17:37:16.737Z,90.60
2023-01-11T17:39:49.431Z,90.70
2023-01-11T17:42:35.830Z,90.70
2023-01-11T17:45:20.614Z,90.80
2023-01-11T17:47:50.868Z,90.80
2023-01-11T17:50:45.239Z,90.90
2023-01-11T17:53:26.801Z,90.90
2023-01-11T17:56:03.044Z,90.90
2023-01-11T17:58:33.524Z,90.80
2023-01-11T18:01:16.267Z,91.00
2023-01-11T18:03:50.093Z,91.00
2023-01-11T18:06:25.890Z,91.10
2023-01-11T18:08:55.016Z,91.10
2023-01-11T18:11:30.514Z,91.10
2023-01-11T18:14:04.120Z,91.00
2023-01-11T18:16:32.130Z,90.90
2023-01-11T18:19:00.085Z,90.90
2023-01-11T18:21:40.727Z,90.80
2023-01-11T18:24:10.992Z,90.80
2023-01-11T18:26:43.123Z,90.70
2023-01-11T18:29:19.360Z,90.70
2023-01-11T18:31:46.520Z,90.80
2023-01-11T18:34:13.584Z,91.40
2023-01-11T18:36:40.649Z,90.80
2023-01-11T18:39:11.788Z,90.70
2023-01-11T18:41:58.324Z,90.70
2023-01-11T18:44:25.409Z,90.90
2023-01-11T18:46:52.450Z,91.30
2023-01-11T18:49:19.514Z,91.20
2023-01-11T18:51:46.561Z,91.10
2023-01-11T18:54:17.805Z,91.30
2023-01-11T18:56:44.884Z,91.00
2023-01-11T18:59:12.044Z,91.00
2023-01-11T19:01:56.107Z,91.30
2023-01-11T19:04:26.326Z,91.10
2023-01-11T19:06:53.381Z,91.10
2023-01-11T19:09:20.473Z,91.10
2023-01-11T19:11:47.521Z,91.20
2023-01-11T19:14:14.799Z,91.30
2023-01-11T19:16:41.851Z,91.70
2023-01-11T19:19:08.905Z,91.60
2023-01-11T19:21:35.977Z,91.30
2023-01-11T19:24:03.449Z,91.40
2023-01-11T19:26:30.608Z,91.40
2023-01-11T19:28:57.998Z,91.30
2023-01-11T19:31:25.204Z,91.20
2023-01-11T19:33:52.555Z,91.20
2023-01-11T19:36:19.784Z,91.20
2023-01-11T19:38:46.893Z,91.00
2023-01-11T19:41:16.685Z,91.10
2023-01-11T19:43:47.034Z,91.10
2023-01-11T19:46:19.545Z,91.00
2023-01-11T19:48:53.009Z,91.00
2023-01-11T19:51:20.049Z,91.00
2023-01-11T19:53:47.135Z,91.20
2023-01-11T19:56:14.206Z,90.80
2023-01-11T19:58:41.233Z,90.70
2023-01-11T20:01:10.786Z,90.70
2023-01-11T20:03:41.123Z,90.70
2023-01-11T20:06:08.895Z,90.80
2023-01-11T20:08:38.419Z,90.80
2023-01-11T20:11:11.230Z,91.00
2023-01-11T20:13:39.279Z,90.70
2023-01-11T20:16:09.488Z,90.80
2023-01-11T20:18:36.736Z,90.70
2023-01-11T20:21:03.983Z,91.20
2023-01-11T20:23:32.410Z,91.10
2023-01-11T20:26:00.891Z,91.00
2023-01-11T20:28:28.317Z,91.00
2023-01-11T20:30:59.291Z,91.00
2023-01-11T20:33:27.878Z,91.00
2023-01-11T20:35:54.928Z,91.10
2023-01-11T20:38:22.011Z,91.10
2023-01-11T20:40:49.068Z,91.20
2023-01-11T20:43:17.310Z,91.30
2023-01-11T20:45:53.782Z,91.50
2023-01-11T20:48:21.395Z,91.30
2023-01-11T20:50:48.451Z,91.30
2023-01-11T20:53:15.654Z,91.30
2023-01-11T20:55:42.750Z,91.20
2023-01-11T20:58:10.066Z,91.10
2023-01-11T21:00:37.122Z,91.30
2023-01-11T21:03:04.292Z,91.20
2023-01-11T21:05:31.402Z,91.20
2023-01-11T21:07:58.446Z,91.10
2023-01-11T21:10:25.519Z,91.20
2023-01-11T21:12:54.817Z,91.10
2023-01-11T21:15:22.292Z,91.00
2023-01-11T21:17:49.560Z,90.80
2023-01-11T21:20:17.223Z,90.80
2023-01-11T21:22:44.310Z,90.80
2023-01-11T21:25:11.411Z,90.70
2023-01-11T21:27:38.908Z,90.90
2023-01-11T21:30:06.542Z,90.90
2023-01-11T21:32:33.691Z,90.70
2023-01-11T21:35:00.733Z,90.80
2023-01-11T21:37:27.817Z,91.00
2023-01-11T21:39:57.697Z,90.60
2023-01-11T21:42:24.788Z,90.50
2023-01-11T21:44:52.229Z,90.40
2023-01-11T21:47:19.655Z,90.30
2023-01-11T21:49:46.779Z,90.00
2023-01-11T21:52:13.842Z,90.20
2023-01-11T21:54:40.978Z,90.20
2023-01-11T21:57:08.016Z,89.90
2023-01-11T21:59:35.757Z,90.20
2023-01-11T22:02:02.840Z,90.30
2023-01-11T22:04:29.943Z,90.10
2023-01-11T22:06:57.872Z,90.30
2023-01-11T22:09:27.439Z,90.20
2023-01-11T22:11:55.407Z,90.50
2023-01-11T22:14:22.643Z,90.40
2023-01-11T22:16:49.901Z,90.60
2023-01-11T22:19:17.318Z,90.50
2023-01-11T22:21:44.728Z,90.40
2023-01-11T22:24:12.157Z,90.30
2023-01-11T22:26:39.792Z,90.30
2023-01-11T22:29:17.619Z,90.60
2023-01-11T22:31:51.550Z,90.20
2023-01-11T22:34:19.197Z,90.20
2023-01-11T22:36:47.086Z,90.00
2023-01-11T22:39:16.248Z,90.10
2023-01-11T22:41:45.463Z,90.10
2023-01-11T22:44:13.314Z,90.30
2023-01-11T22:46:40.697Z,89.60
2023-01-11T22:49:08.333Z,89.90
2023-01-11T22:51:35.938Z,89.70
2023-01-11T22:54:03.943Z,90.00
2023-01-11T22:56:31.627Z,90.00
2023-01-11T22:58:59.525Z,90.00
2023-01-11T23:01:34.710Z,90.00
2023-01-11T23:04:02.325Z,90.00
2023-01-11T23:06:40.126Z,90.60
2023-01-11T23:09:10.355Z,90.10
2023-01-11T23:11:57.952Z,89.80
2023-01-11T23:14:30.698Z,89.80
2023-01-11T23:17:08.112Z,90.20
2023-01-11T23:19:40.584Z,90.00
2023-01-11T23:22:08.965Z,90.10
2023-01-11T23:24:37.333Z,90.60
2023-01-11T23:27:05.328Z,90.00
2023-01-11T23:29:32.625Z,90.10
2023-01-11T23:31:59.860Z,90.30
2023-01-11T23:34:27.063Z,90.60
2023-01-11T23:36:54.214Z,90.50
2023-01-11T23:39:21.350Z,90.50
2023-01-11T23:42:07.023Z,90.40
2023-01-11T23:44:34.303Z,90.70
2023-01-11T23:47:20.217Z,90.60
2023-01-11T23:49:56.468Z,90.60
2023-01-11T23:52:25.581Z,91.20
2023-01-11T23:54:52.731Z,90.50
2023-01-11T23:57:20.860Z,90.60
2023-01-11T23:59:47.932Z,90.70
